x

Buoy E01 - Central Maine Shelf (44032) Wave Buoy

1:04am - Mon 26th Jun 2017 All times are EDT. -4 hours from GMT.

  • Sig Wave height 3.3ft
  • Peak Period 8s
  • Wind
    4mph, 7mph gusts
  • Sea Temp 57°f
  • 空気 Temp 60°f
  • Sea Pressure 1010.9mb
  • Buoy E01 - Central Maine Shelf
  • Buoy E01 - Central Maine Shelf

More Historic Weather Station data

Upgrade to MSW Pro to gain access to the past 30 days of data for over 8000 Wavebouys and Weather Stations around the globe.

Join Pro

Comparision Forecast

View Surf forecast
   
Mon 06/26 1:04am 3.5ft 8s 4 7 mph 1010.9mb 57f 60f
12:04am 3.5ft 8s 9 16 mph 1011.7mb 56f 59f
Sun 06/25 11:04pm 4.5ft 8s 9 11 mph 1011.2mb 57f 61f
9:04pm 4.5ft 8s 16 16 mph 1010.4mb 58f 62f
8:04pm 3.5ft 8s 16 18 mph 1010.4mb 58f 62f
7:04pm 3.5ft 8s 16 18 mph 1010.4mb 58f 63f
6:04pm 3.5ft 8s 11 11 mph 1010.3mb 58f 62f
5:04pm 3.5ft 8s 13 13 mph 1010.3mb 58f 62f
4:04pm 3.5ft 8s 9 11 mph 1010.8mb 58f 62f
3:04pm 3ft 8s 9 9 mph 1011.4mb 58f 61f
2:04pm 3.5ft 6s 11 11 mph 1011.4mb 58f 61f
1:04pm 3.5ft 8s 11 13 mph 1011.6mb 58f 60f
12:04pm 3.5ft 8s 7 9 mph 1011.8mb 58f 60f
11:04am 4ft 8s 7 9 mph 1012mb 57f 59f
10:04am 4.5ft 8s 7 7 mph 1012.2mb 57f 59f
9:04am 4ft 8s 7 9 mph 1012mb 56f 59f
8:04am 4.5ft 8s 4 7 mph 1011.9mb 56f 59f
7:04am 3.5ft 8s 4 4 mph 1011.5mb 56f 59f
6:04am 3.5ft 8s 7 9 mph 1010.4mb 56f 59f
5:04am 3ft 8s 7 9 mph 1010mb 56f 59f
4:04am 3ft 8s 7 9 mph 1009mb 56f 60f
3:04am 2.5ft 6s 4 4 mph 1008.8mb 56f 61f
2:04am 3.5ft 8s 7 9 mph 1008.4mb 57f 64f
1:04am 3.5ft 6s 7 7 mph 1007.7mb 58f 62f
12:04am 3.5ft 6s 9 9 mph 1007.1mb 58f 63f
Sat 06/24 11:04pm 3.5ft 6s 11 13 mph 1006.5mb 58f 63f
10:04pm 3.5ft 6s 11 11 mph 1006mb 58f 62f
9:04pm 3.5ft 6s 9 9 mph 1005mb 58f 62f
8:04pm 3.5ft 8s 9 11 mph 1004.1mb 58f 62f
7:04pm 3.5ft 6s 9 9 mph 1003.6mb 58f 63f
6:04pm 3.5ft 6s 9 11 mph 1002.7mb 57f 62f
5:04pm 4ft 6s 9 11 mph 1002.1mb 57f 61f
2:04pm 4.5ft 8s 4 7 mph 1000.4mb 58f 60f
1:04pm 5ft 6s 11 11 mph 999.6mb 58f 61f
12:04pm 5ft 6s 9 11 mph 999.7mb 57f 60f
11:04am 5ft 6s 13 16 mph 999.4mb 56f 60f
10:04am 6ft 6s 13 16 mph 998.8mb 56f 59f
9:04am 6ft 6s 16 20 mph 997.8mb 56f 60f
8:04am 6ft 6s 18 20 mph 997.7mb 56f 60f
7:04am 5.5ft 6s 20 25 mph 997.9mb 56f 60f
6:04am 5ft 6s 22 25 mph 997.8mb 56f 60f
5:04am 5.5ft 6s 20 25 mph 997.8mb 57f 60f
4:04am 5.5ft 6s 18 22 mph 998.2mb 58f 61f
3:04am 6ft 6s 20 25 mph 998.6mb 57f 61f
2:04am 6.5ft 6s 22 27 mph 999.3mb 57f 62f
1:04am 6ft 6s 20 25 mph 999.5mb 57f 62f
12:04am 5.5ft 6s 22 27 mph 999.9mb 57f 62f
Fri 06/23 11:04pm 5ft 5s 20 22 mph 1000.5mb 58f 61f
10:04pm 5.5ft 6s 22 27 mph 1000.9mb 58f 62f
9:04pm 4.5ft 5s 22 25 mph 1000.9mb 59f 63f
8:04pm 4ft 5s 18 20 mph 1001.9mb 60f 62f
7:04pm 2.5ft 4s 7 9 mph 1002.8mb 60f 64f
6:04pm 2.5ft 8s 4 7 mph 1003.3mb 60f 61f
5:04pm 2.5ft 8s 9 9 mph 1004.1mb 60f 61f
4:04pm 1.6ft 4s 2 4 mph 1005.4mb 59f 61f
3:04pm 1.6ft 6s 7 7 mph 1005.7mb 57f 59f
2:04pm 1.6ft 6s 7 9 mph 1006.4mb 57f 59f
1:04pm 2ft 6s 9 11 mph 1007.1mb 57f 59f
12:04pm 1.6ft 6s 7 7 mph 1007.9mb 57f 58f
11:04am 1.6ft 6s 4 7 mph 1008.2mb 56f 59f
10:04am 1.6ft 5s 2 2 mph 1008.6mb 57f 58f
9:04am 2ft 6s 11 13 mph 1008.4mb 58f 57f
8:04am 2ft 6s 9 9 mph 1010.3mb 58f 58f
7:04am 2ft 6s 7 7 mph 1009mb 58f 59f
6:04am 2ft 6s 4 9 mph 1009.3mb 58f 59f
5:04am 2.5ft 6s 4 4 mph 1009.3mb 58f 58f
4:04am 2ft 6s 2 2 mph 1009.3mb 58f 60f
3:04am 2.5ft 5s 4 7 mph 1010.2mb 58f 60f
2:04am 2.5ft 6s 7 7 mph 1010.3mb 58f 59f
1:04am 2.5ft 5s 2 4 mph 1011mb 58f 59f
12:04am 2.5ft 5s 2 2 mph 1011.2mb 58f 59f
Thu 06/22 11:04pm 3ft 5s 4 4 mph 1011.4mb 58f 60f
10:04pm 3.5ft 6s 11 13 mph 1011.1mb 58f 61f
9:04pm 2.5ft 6s 13 16 mph 1010.9mb 58f 61f
8:04pm 2.5ft 6s 13 16 mph 1010.8mb 58f 61f
7:04pm 2.5ft 6s 16 18 mph 1010.3mb 58f 62f
6:04pm 2.5ft 8s 13 18 mph 1010.7mb 59f 62f
5:04pm 2.5ft 6s 16 18 mph 1010.9mb 59f 62f
4:04pm 2.5ft 8s 16 18 mph 1010.8mb 59f 62f
3:04pm 2.5ft 8s 13 16 mph 1011.4mb 59f 61f
2:04pm 2.5ft 6s 13 16 mph 1011.8mb 58f 61f
1:04pm 3ft 6s 13 16 mph 1012.5mb 58f 61f
12:04pm 2.5ft 6s 11 13 mph 1012.3mb 58f 60f
11:04am 2.5ft 6s 11 13 mph 1012.5mb 57f 59f
10:04am 2.5ft 5s 11 13 mph 1013.2mb 58f 59f
9:04am 2.5ft 6s 7 7 mph 1013.1mb 57f 59f
8:04am 2.5ft 6s 9 11 mph 1013.1mb 57f 59f